Time;durP1;ratioP1;P1;durP2;ratioP2;P2;SDS_P1;SDS_P2;PMS_P1;PMS_P2;Temp;Humidity;BMP_temperature;BMP_pressure;BME280_temperature;BME280_humidity;BME280_pressure;Samples;Min_cycle;Max_cycle;Signal;HPM_P1;HPM_P2
2022/01/28 00:00:32;;;;;;;;;;;;;;;21.28;42.98;100848.00;5078607;28;4341;-56
2022/01/28 00:03:06;;;;;;;;;;;;;;;21.27;42.95;100840.75;5079198;28;4197;-58
2022/01/28 00:05:33;;;;;;;;;;;;;;;21.26;43.17;100850.06;5080125;28;4175;-58
2022/01/28 00:07:59;;;;;;;;;;;;;;;21.24;43.17;100859.34;5080521;28;4231;-58
2022/01/28 00:10:26;;;;;;;;;;;;;;;21.24;43.29;100858.59;5082511;28;5350;-57
2022/01/28 00:15:48;;;;;;;;;;;;;;;21.24;43.15;100876.63;5080943;28;4241;-58
2022/01/28 00:18:59;;;;;;;;;;;;;;;21.24;43.22;100865.09;5082340;28;4183;-57
2022/01/28 00:40:26;;;;;;;;;;;;;;;21.23;42.86;100866.47;5080862;28;4303;-55
2022/01/28 00:42:52;;;;;;;;;;;;;;;21.23;42.90;100877.25;5077202;28;5300;-57
2022/01/28 00:45:19;;;;;;;;;;;;;;;21.21;42.80;100872.19;5077712;28;5374;-57
2022/01/28 00:47:46;;;;;;;;;;;;;;;21.21;42.99;100889.47;5081424;28;5467;-56
2022/01/28 00:50:13;;;;;;;;;;;;;;;21.22;42.96;100893.06;5075998;28;5410;-55
2022/01/28 00:52:39;;;;;;;;;;;;;;;21.22;42.75;100890.94;5077456;28;4211;-55
2022/01/28 00:55:06;;;;;;;;;;;;;;;21.18;43.11;100896.50;5073432;28;5244;-56
2022/01/28 00:57:32;;;;;;;;;;;;;;;21.22;43.07;100890.94;5077029;28;5466;-56
2022/01/28 00:59:59;;;;;;;;;;;;;;;21.23;43.17;100898.16;5075413;28;4237;-55
2022/01/28 01:02:25;;;;;;;;;;;;;;;21.22;42.99;100896.69;5073371;28;4377;-56
2022/01/28 01:04:51;;;;;;;;;;;;;;;21.21;43.17;100897.34;5075731;28;4294;-55
2022/01/28 01:07:18;;;;;;;;;;;;;;;21.19;42.93;100912.41;5075725;28;5140;-54
2022/01/28 01:09:45;;;;;;;;;;;;;;;21.20;43.13;100908.13;5076441;28;4172;-57
2022/01/28 01:12:12;;;;;;;;;;;;;;;21.19;43.02;100898.00;5078409;28;4172;-56
2022/01/28 01:14:39;;;;;;;;;;;;;;;21.18;42.93;100925.31;5079353;28;4235;-56
2022/01/28 01:17:25;;;;;;;;;;;;;;;21.20;43.06;100922.50;5077768;28;4195;-56
2022/01/28 01:20:01;;;;;;;;;;;;;;;21.20;42.91;100931.16;5075951;28;4157;-56
2022/01/28 01:22:35;;;;;;;;;;;;;;;21.19;43.15;100938.31;5076134;28;5246;-56
2022/01/28 01:25:04;;;;;;;;;;;;;;;21.19;42.96;100949.84;5075961;28;4109;-56
2022/01/28 01:27:30;;;;;;;;;;;;;;;21.19;42.89;100937.56;5078381;28;4295;-55
2022/01/28 01:29:57;;;;;;;;;;;;;;;21.19;42.92;100941.19;5076097;28;4191;-56
2022/01/28 01:32:23;;;;;;;;;;;;;;;21.19;42.97;100955.59;5079942;28;4261;-57
2022/01/28 01:34:49;;;;;;;;;;;;;;;21.18;42.82;100956.97;5081308;28;5271;-57
2022/01/28 01:37:16;;;;;;;;;;;;;;;21.16;42.96;100954.00;5081418;28;4205;-55
2022/01/28 01:39:42;;;;;;;;;;;;;;;21.17;42.92;100957.66;5080658;28;5435;-54
2022/01/28 01:42:28;;;;;;;;;;;;;;;21.18;43.12;100965.63;5080729;28;4266;-53
2022/01/28 01:45:39;;;;;;;;;;;;;;;21.18;42.84;100962.75;5081562;28;4308;-55
2022/01/28 01:53:17;;;;;;;;;;;;;;;21.15;42.86;100989.97;5080901;28;4190;-56
2022/01/28 01:55:44;;;;;;;;;;;;;;;21.14;43.12;100982.72;5081543;28;4548;-57
2022/01/28 01:58:10;;;;;;;;;;;;;;;21.15;42.88;100984.22;5079000;28;4228;-64
2022/01/28 02:00:36;;;;;;;;;;;;;;;21.12;42.96;100997.78;5057749;28;4536;-64
2022/01/28 02:03:03;;;;;;;;;;;;;;;21.16;42.86;101007.97;5081475;28;4193;-63
2022/01/28 02:05:29;;;;;;;;;;;;;;;21.16;43.04;101007.97;5080846;28;4215;-64
2022/01/28 02:07:55;;;;;;;;;;;;;;;21.16;42.84;101005.84;5081224;28;5475;-63
2022/01/28 02:10:22;;;;;;;;;;;;;;;21.17;43.07;101009.47;5083300;28;4235;-63
2022/01/28 02:12:51;;;;;;;;;;;;;;;21.16;43.21;101019.50;5081861;28;5279;-65
2022/01/28 02:15:18;;;;;;;;;;;;;;;21.15;43.06;101024.53;5079341;28;5289;-64
2022/01/28 02:17:44;;;;;;;;;;;;;;;21.15;43.08;101018.75;5081368;28;5339;-63
2022/01/28 02:20:41;;;;;;;;;;;;;;;21.14;43.07;101028.78;5079536;28;5540;-64
2022/01/28 02:23:08;;;;;;;;;;;;;;;21.12;43.13;101022.94;5083091;28;4217;-64
2022/01/28 02:25:34;;;;;;;;;;;;;;;21.13;42.91;101030.19;5080796;28;4240;-64
2022/01/28 02:28:03;;;;;;;;;;;;;;;21.12;42.89;101026.56;5076513;28;5321;-58
2022/01/28 02:30:29;;;;;;;;;;;;;;;21.11;42.86;101027.94;5074930;28;5330;-58
2022/01/28 02:33:14;;;;;;;;;;;;;;;21.12;42.95;101026.56;5079655;28;5480;-57
2022/01/28 02:35:42;;;;;;;;;;;;;;;21.13;42.90;101033.06;5080327;28;4056;-57
2022/01/28 02:38:08;;;;;;;;;;;;;;;21.12;42.94;101025.84;5080401;28;4218;-57
2022/01/28 02:40:36;;;;;;;;;;;;;;;21.12;43.12;101046.72;5079968;28;4239;-57
2022/01/28 02:43:16;;;;;;;;;;;;;;;21.12;43.04;101040.22;5081498;28;4170;-57
2022/01/28 02:45:44;;;;;;;;;;;;;;;21.10;42.99;101061.03;5083575;28;4230;-57
2022/01/28 02:48:20;;;;;;;;;;;;;;;21.12;43.01;101043.09;5079585;28;5475;-57
2022/01/28 02:51:03;;;;;;;;;;;;;;;21.15;42.73;101036.03;5079366;28;4291;-57
2022/01/28 02:53:39;;;;;;;;;;;;;;;21.15;42.85;101050.44;5079386;28;4289;-57
2022/01/28 02:56:13;;;;;;;;;;;;;;;21.16;42.80;101060.56;5081730;28;4232;-56
2022/01/28 02:58:40;;;;;;;;;;;;;;;21.16;42.66;101060.56;5080026;28;4241;-58
2022/01/28 03:01:06;;;;;;;;;;;;;;;21.15;42.74;101069.84;5081973;28;4197;-57
2022/01/28 03:03:33;;;;;;;;;;;;;;;21.17;42.77;101067.06;5081407;28;4241;-57
2022/01/28 03:05:59;;;;;;;;;;;;;;;21.17;42.65;101079.34;5084863;28;4592;-56
2022/01/28 03:08:29;;;;;;;;;;;;;;;21.17;42.89;101079.34;5084442;28;4224;-56
2022/01/28 03:16:21;;;;;;;;;;;;;;;21.13;42.95;101084.91;4992350;28;4223;-55
2022/01/28 03:18:55;;;;;;;;;;;;;;;21.15;42.81;101087.88;5081266;28;4156;-58
2022/01/28 03:23:57;;;;;;;;;;;;;;;21.16;42.64;101100.88;5079380;28;4236;-55
2022/01/28 03:26:25;;;;;;;;;;;;;;;21.16;42.77;101100.88;5081156;28;5188;-57
2022/01/28 03:28:56;;;;;;;;;;;;;;;21.15;42.98;101110.16;5080473;28;5100;-57
2022/01/28 03:31:22;;;;;;;;;;;;;;;21.15;43.02;101105.16;5080413;28;4247;-57
2022/01/28 03:33:49;;;;;;;;;;;;;;;21.15;42.76;101115.94;5081560;28;4202;-56
2022/01/28 03:36:15;;;;;;;;;;;;;;;21.15;43.09;101115.94;5078927;28;4066;-56
2022/01/28 03:38:41;;;;;;;;;;;;;;;21.15;42.65;101116.66;5080673;28;4290;-57
2022/01/28 03:41:16;;;;;;;;;;;;;;;21.13;42.67;101125.94;5078608;28;5247;-57
2022/01/28 03:43:46;;;;;;;;;;;;;;;21.13;42.66;101142.50;5079317;28;4201;-57
2022/01/28 03:46:13;;;;;;;;;;;;;;;21.13;42.95;101131.72;5082480;28;6303;-58
2022/01/28 03:48:39;;;;;;;;;;;;;;;21.13;42.62;101142.50;5079882;28;4298;-57
2022/01/28 03:51:05;;;;;;;;;;;;;;;21.13;42.96;101148.25;5075681;28;5516;-57
2022/01/28 03:53:32;;;;;;;;;;;;;;;21.14;42.82;101143.97;5079432;28;4556;-58
2022/01/28 03:55:58;;;;;;;;;;;;;;;21.13;42.78;101143.22;5079425;28;4215;-58
2022/01/28 03:58:25;;;;;;;;;;;;;;;21.14;43.10;101155.47;5078697;28;4219;-57
2022/01/28 04:00:52;;;;;;;;;;;;;;;21.15;42.92;101162.75;5078122;28;4239;-57
2022/01/28 04:13:52;;;;;;;;;;;;;;;21.15;42.78;101171.38;5081367;28;5399;-57
2022/01/28 04:18:48;;;;;;;;;;;;;;;21.15;42.98;101191.53;5077705;28;4241;-57
2022/01/28 04:21:14;;;;;;;;;;;;;;;21.15;42.78;101197.31;5077031;28;5359;-57
2022/01/28 04:23:40;;;;;;;;;;;;;;;21.13;42.93;101200.09;5080071;28;4134;-57
2022/01/28 04:26:07;;;;;;;;;;;;;;;21.13;42.81;101206.59;5076827;28;4210;-56
2022/01/28 04:28:33;;;;;;;;;;;;;;;21.13;42.94;101220.25;5078175;28;5511;-64
2022/01/28 04:30:59;;;;;;;;;;;;;;;21.13;42.90;101211.59;5078724;28;4263;-64
2022/01/28 04:33:27;;;;;;;;;;;;;;;21.13;42.78;101223.13;5079838;28;4211;-64
2022/01/28 04:35:55;;;;;;;;;;;;;;;21.13;42.71;101223.13;5076805;28;5439;-64
2022/01/28 04:38:39;;;;;;;;;;;;;;;21.13;42.67;101228.88;5081362;28;4246;-65
2022/01/28 04:41:15;;;;;;;;;;;;;;;21.13;42.74;101238.25;5079168;28;5431;-64
2022/01/28 04:43:48;;;;;;;;;;;;;;;21.12;42.89;101238.91;5077796;28;4049;-64
2022/01/28 04:46:27;;;;;;;;;;;;;;;21.15;42.59;101237.63;5061161;28;5247;-65
2022/01/28 04:49:44;;;;;;;;;;;;;;;21.15;42.84;101243.38;5077391;28;4292;-65
2022/01/28 04:59:58;;;;;;;;;;;;;;;21.13;42.80;101257.69;5055036;28;4218;-54
2022/01/28 05:02:45;;;;;;;;;;;;;;;21.14;42.84;101262.03;5057139;28;4089;-56
2022/01/28 05:05:34;;;;;;;;;;;;;;;21.14;42.84;101270.66;5053811;28;5443;-56
2022/01/28 05:08:32;;;;;;;;;;;;;;;21.13;42.90;101280.72;5060861;28;5473;-56
2022/01/28 05:11:21;;;;;;;;;;;;;;;21.12;42.71;101279.22;5072442;28;4179;-56
2022/01/28 05:14:09;;;;;;;;;;;;;;;21.15;42.61;101288.72;5083259;28;4239;-55
2022/01/28 05:16:58;;;;;;;;;;;;;;;21.13;42.81;101292.22;5062978;28;4171;-55
2022/01/28 05:23:21;;;;;;;;;;;;;;;21.14;42.83;101305.22;5061863;28;5881;-55
2022/01/28 05:25:45;;;;;;;;;;;;;;;21.12;42.79;101308.03;5019497;28;4340;-55
2022/01/28 05:28:03;;;;;;;;;;;;;;;21.13;42.69;101316.00;5062584;28;4228;-54
2022/01/28 05:30:29;;;;;;;;;;;;;;;21.11;42.70;101326.69;5061544;28;5391;-55
2022/01/28 05:32:55;;;;;;;;;;;;;;;21.13;42.68;101332.56;5058916;28;4241;-54
2022/01/28 05:35:22;;;;;;;;;;;;;;;21.12;42.71;101328.94;5072998;28;4140;-54
2022/01/28 05:37:49;;;;;;;;;;;;;;;21.15;42.67;101341.28;5081445;28;4222;-54
2022/01/28 05:40:15;;;;;;;;;;;;;;;21.15;42.85;101347.06;5081072;28;4193;-56
2022/01/28 05:42:41;;;;;;;;;;;;;;;21.18;42.72;101345.03;5080931;28;5372;-55
2022/01/28 05:45:08;;;;;;;;;;;;;;;21.17;42.80;101350.03;5080335;28;5215;-56
2022/01/28 05:47:36;;;;;;;;;;;;;;;21.15;42.78;101361.44;5081371;28;4287;-56
2022/01/28 05:50:03;;;;;;;;;;;;;;;21.14;42.86;101359.94;5082663;28;4226;-56
2022/01/28 05:52:31;;;;;;;;;;;;;;;21.15;42.76;101369.34;5080143;28;5302;-55
2022/01/28 05:54:58;;;;;;;;;;;;;;;21.15;42.98;101364.34;5080166;28;4175;-55
2022/01/28 05:57:24;;;;;;;;;;;;;;;21.11;42.79;101367.00;5080267;28;5341;-55
2022/01/28 05:59:51;;;;;;;;;;;;;;;21.17;42.92;101372.34;5082056;28;4060;-56
2022/01/28 06:02:18;;;;;;;;;;;;;;;21.16;42.95;101380.22;5081851;28;4149;-65
2022/01/28 06:04:45;;;;;;;;;;;;;;;21.14;42.77;101380.09;5080650;28;6617;-64
2022/01/28 06:07:12;;;;;;;;;;;;;;;21.16;42.82;101393.88;5082084;28;4359;-62
2022/01/28 06:09:38;;;;;;;;;;;;;;;21.15;42.94;101398.91;5080566;28;4061;-65
2022/01/28 06:12:05;;;;;;;;;;;;;;;21.16;42.64;101405.41;5088712;28;5675;-64
2022/01/28 06:14:31;;;;;;;;;;;;;;;21.13;42.71;101405.28;5087346;28;4032;-62
2022/01/28 06:16:57;;;;;;;;;;;;;;;21.13;42.76;101424.69;5087299;28;4156;-62
2022/01/28 06:19:24;;;;;;;;;;;;;;;21.14;42.85;101437.69;5082721;28;4294;-64
2022/01/28 06:21:50;;;;;;;;;;;;;;;21.14;42.58;101431.94;5084386;28;5110;-62
2022/01/28 06:24:16;;;;;;;;;;;;;;;21.13;42.69;101444.88;5080980;28;4223;-62
2022/01/28 06:26:43;;;;;;;;;;;;;;;21.13;42.67;101454.25;5081156;28;5285;-57
2022/01/28 06:29:12;;;;;;;;;;;;;;;21.15;42.77;101450.72;5081730;28;5455;-53
2022/01/28 06:31:39;;;;;;;;;;;;;;;21.15;42.75;101456.50;5080776;28;4167;-56
2022/01/28 06:34:05;;;;;;;;;;;;;;;21.17;42.96;101470.25;5080921;28;4211;-54
2022/01/28 06:36:31;;;;;;;;;;;;;;;21.15;42.72;101456.50;5078260;28;4074;-55
2022/01/28 06:38:58;;;;;;;;;;;;;;;21.11;42.82;101457.00;5074925;28;4217;-56
2022/01/28 06:41:24;;;;;;;;;;;;;;;21.16;42.86;101481.00;5079617;28;4151;-56
2022/01/28 06:43:50;;;;;;;;;;;;;;;21.15;42.96;101491.06;5077994;28;4330;-56
2022/01/28 06:46:17;;;;;;;;;;;;;;;21.12;42.96;101492.34;5081554;28;4067;-56
2022/01/28 06:48:43;;;;;;;;;;;;;;;21.13;42.97;101505.34;5081676;28;4217;-56
2022/01/28 06:51:10;;;;;;;;;;;;;;;21.12;42.93;101509.63;5085481;28;4234;-55
2022/01/28 06:53:36;;;;;;;;;;;;;;;21.12;43.14;101521.13;5085166;28;4994;-55
2022/01/28 06:56:02;;;;;;;;;;;;;;;21.15;42.60;101524.88;5082443;28;4385;-56
2022/01/28 06:58:29;;;;;;;;;;;;;;;21.14;43.26;101541.38;5086212;28;4199;-55
2022/01/28 07:00:55;;;;;;;;;;;;;;;21.18;43.27;101538.72;5084373;28;4201;-55
2022/01/28 07:03:21;;;;;;;;;;;;;;;21.18;43.90;101547.38;5081176;28;4232;-57
2022/01/28 07:05:48;;;;;;;;;;;;;;;21.25;44.45;101551.31;5078608;28;4550;-66
2022/01/28 07:08:14;;;;;;;;;;;;;;;21.25;43.63;101549.19;5082214;28;4187;-66
2022/01/28 07:10:41;;;;;;;;;;;;;;;21.26;44.48;101559.34;5083524;28;4277;-65
2022/01/28 07:13:07;;;;;;;;;;;;;;;20.82;40.97;101558.41;5083756;28;4238;-64
2022/01/28 07:15:33;;;;;;;;;;;;;;;20.83;40.88;101571.41;5082624;28;4268;-64
2022/01/28 07:18:02;;;;;;;;;;;;;;;20.96;40.78;101572.06;5085825;28;4239;-64
2022/01/28 07:20:31;;;;;;;;;;;;;;;21.04;40.76;101570.38;5085493;28;5242;-64
2022/01/28 07:22:57;;;;;;;;;;;;;;;21.09;40.65;101568.47;5084313;28;4178;-64
2022/01/28 07:25:24;;;;;;;;;;;;;;;21.09;40.85;101585.75;5062990;28;4958;-65
2022/01/28 07:27:50;;;;;;;;;;;;;;;21.11;41.92;101597.38;5083584;28;5311;-65
2022/01/28 07:30:16;;;;;;;;;;;;;;;21.12;42.01;101601.78;5086230;28;5238;-64
2022/01/28 07:32:43;;;;;;;;;;;;;;;21.13;42.29;101603.25;5086111;28;4255;-64
2022/01/28 07:35:11;;;;;;;;;;;;;;;21.12;42.12;101619.06;5083066;28;4173;-60
2022/01/28 07:37:37;;;;;;;;;;;;;;;21.12;42.25;101619.06;5087027;28;4183;-57
2022/01/28 07:40:04;;;;;;;;;;;;;;;20.93;41.44;101625.91;5085424;28;4239;-56
2022/01/28 07:42:35;;;;;;;;;;;;;;;20.93;42.11;101626.66;5081627;28;5252;-62
2022/01/28 07:45:02;;;;;;;;;;;;;;;19.90;40.93;101644.34;5079450;28;4412;-59
2022/01/28 07:47:28;;;;;;;;;;;;;;;19.62;40.83;101653.44;5081753;28;4204;-59
2022/01/28 07:49:55;;;;;;;;;;;;;;;19.46;40.37;101646.69;5083835;28;5315;-59
2022/01/28 07:52:21;;;;;;;;;;;;;;;19.49;39.10;101674.16;5083699;28;4051;-57
2022/01/28 07:54:49;;;;;;;;;;;;;;;19.01;39.09;101655.31;5083224;28;4163;-63
2022/01/28 07:57:16;;;;;;;;;;;;;;;19.02;39.30;101651.09;5080158;28;5365;-61
2022/01/28 07:59:42;;;;;;;;;;;;;;;19.15;39.39;101659.13;5077161;28;4221;-61
2022/01/28 08:02:09;;;;;;;;;;;;;;;19.11;39.28;101669.59;5078135;28;4169;-59
2022/01/28 08:04:38;;;;;;;;;;;;;;;19.11;39.30;101681.09;5076690;28;4021;-70
2022/01/28 08:07:04;;;;;;;;;;;;;;;19.99;39.46;101690.19;5084340;28;4274;-64
2022/01/28 08:09:31;;;;;;;;;;;;;;;20.42;41.18;101692.78;5084442;28;5317;-61
2022/01/28 08:11:57;;;;;;;;;;;;;;;20.68;41.19;101704.38;5083615;28;5439;-61
2022/01/28 08:14:24;;;;;;;;;;;;;;;20.84;41.25;101716.06;5082315;28;4251;-62
2022/01/28 08:16:50;;;;;;;;;;;;;;;20.88;41.11;101722.81;5072494;28;4401;-61
2022/01/28 08:19:17;;;;;;;;;;;;;;;20.87;40.78;101727.09;5082186;28;5427;-60
2022/01/28 08:21:43;;;;;;;;;;;;;;;20.94;40.80;101719.56;5084361;28;5229;-58
2022/01/28 08:24:09;;;;;;;;;;;;;;;21.12;40.93;101722.75;5082469;28;4159;-63
2022/01/28 08:26:36;;;;;;;;;;;;;;;21.24;40.33;101719.78;5081027;28;4252;-62
2022/01/28 08:29:03;;;;;;;;;;;;;;;21.25;40.09;101721.28;5078016;28;5354;-61
2022/01/28 08:31:30;;;;;;;;;;;;;;;21.28;39.91;101722.88;5080888;28;4229;-62
2022/01/28 08:33:57;;;;;;;;;;;;;;;21.11;39.61;101739.25;5078061;28;6350;-63
2022/01/28 08:36:23;;;;;;;;;;;;;;;21.12;39.76;101743.63;5063920;28;4246;-63
2022/01/28 08:38:53;;;;;;;;;;;;;;;21.13;39.66;101747.25;5082134;28;5353;-62
2022/01/28 08:41:20;;;;;;;;;;;;;;;21.17;39.56;101738.13;5081634;28;5447;-62
2022/01/28 08:43:47;;;;;;;;;;;;;;;21.20;40.25;101746.22;5078363;28;4103;-62
2022/01/28 08:46:13;;;;;;;;;;;;;;;21.20;39.92;101757.75;5054081;28;4081;-63
2022/01/28 08:48:40;;;;;;;;;;;;;;;21.23;39.75;101762.22;5061873;28;4448;-66
2022/01/28 08:51:06;;;;;;;;;;;;;;;21.28;39.86;101784.16;5064746;28;4216;-63
2022/01/28 08:53:33;;;;;;;;;;;;;;;21.24;39.79;101781.03;5064669;28;4243;-67
2022/01/28 08:55:59;;;;;;;;;;;;;;;21.26;39.83;101784.03;5059148;28;4229;-64
2022/01/28 08:58:26;;;;;;;;;;;;;;;21.20;40.24;101772.16;5060919;28;4276;-64
2022/01/28 09:00:52;;;;;;;;;;;;;;;21.18;40.49;101795.06;5063683;28;5108;-69
2022/01/28 09:03:19;;;;;;;;;;;;;;;21.22;40.37;101783.78;5061478;28;4346;-63
2022/01/28 09:05:46;;;;;;;;;;;;;;;21.20;40.37;101803.84;5061641;28;4227;-63
2022/01/28 09:08:12;;;;;;;;;;;;;;;21.18;40.36;101794.31;5066976;28;4132;-63
2022/01/28 09:10:43;;;;;;;;;;;;;;;21.19;40.33;101805.22;5079532;28;5326;-64
2022/01/28 09:13:21;;;;;;;;;;;;;;;21.19;40.19;101807.34;5081053;28;5280;-64
2022/01/28 09:15:47;;;;;;;;;;;;;;;21.22;40.51;101809.72;5077261;28;4170;-67
2022/01/28 09:18:14;;;;;;;;;;;;;;;21.22;40.44;101820.50;5079770;28;4239;-63
2022/01/28 09:20:40;;;;;;;;;;;;;;;21.24;40.46;101832.13;5076134;28;4217;-64
2022/01/28 09:23:06;;;;;;;;;;;;;;;21.23;40.58;101833.50;5080254;28;4216;-60
2022/01/28 09:25:34;;;;;;;;;;;;;;;21.24;40.49;101838.66;5082017;28;5575;-61
2022/01/28 09:28:01;;;;;;;;;;;;;;;21.24;40.40;101837.91;5080921;28;4294;-62
2022/01/28 09:30:27;;;;;;;;;;;;;;;21.26;40.73;101835.13;5078459;28;4221;-65
2022/01/28 09:32:53;;;;;;;;;;;;;;;21.45;40.52;101840.59;5082229;28;4211;-61
2022/01/28 09:35:20;;;;;;;;;;;;;;;21.50;40.42;101839.44;5086082;28;4117;-68
2022/01/28 09:37:46;;;;;;;;;;;;;;;21.30;40.56;101853.41;5083765;28;4260;-59
2022/01/28 09:40:12;;;;;;;;;;;;;;;21.31;40.59;101854.91;5081225;28;4260;-59
2022/01/28 09:42:42;;;;;;;;;;;;;;;21.48;40.75;101847.22;5079006;28;4395;-63
2022/01/28 09:45:09;;;;;;;;;;;;;;;21.60;40.86;101861.56;5079912;28;4223;-65
2022/01/28 09:47:36;;;;;;;;;;;;;;;21.66;41.02;101874.19;5081483;28;5294;-67
2022/01/28 09:50:06;;;;;;;;;;;;;;;21.69;40.83;101870.06;5078799;28;5336;-67
2022/01/28 09:52:32;;;;;;;;;;;;;;;21.71;41.15;101887.47;5080897;28;4226;-63
2022/01/28 09:54:59;;;;;;;;;;;;;;;21.71;41.18;101895.38;5085296;28;4579;-64
2022/01/28 09:57:25;;;;;;;;;;;;;;;21.78;41.11;101894.31;5080311;28;4065;-62
2022/01/28 09:59:51;;;;;;;;;;;;;;;21.95;41.16;101901.78;5076356;28;5213;-63
2022/01/28 10:02:18;;;;;;;;;;;;;;;22.02;41.14;101900.72;5071940;28;4391;-63
2022/01/28 10:04:44;;;;;;;;;;;;;;;22.07;40.84;101914.00;5076105;28;4270;-62
2022/01/28 10:07:11;;;;;;;;;;;;;;;22.14;40.74;101906.44;5066377;28;5285;-64
2022/01/28 10:09:54;;;;;;;;;;;;;;;21.58;41.59;101922.75;5075602;28;4222;-64
2022/01/28 10:12:27;;;;;;;;;;;;;;;21.43;41.92;101923.28;5081809;28;4344;-64
2022/01/28 10:14:59;;;;;;;;;;;;;;;21.26;39.54;101918.69;5079228;28;5242;-63
2022/01/28 10:17:25;;;;;;;;;;;;;;;20.60;37.44;101923.34;5076526;28;4153;-63
2022/01/28 10:19:51;;;;;;;;;;;;;;;20.36;36.04;101927.53;5065476;28;4239;-61
2022/01/28 10:22:18;;;;;;;;;;;;;;;20.81;35.26;101936.13;5084486;28;4296;-61
2022/01/28 10:25:04;;;;;;;;;;;;;;;20.54;34.53;101936.59;5078683;28;4369;-63
2022/01/28 10:27:31;;;;;;;;;;;;;;;20.85;34.86;101939.25;5081473;28;4238;-63
2022/01/28 10:29:58;;;;;;;;;;;;;;;21.03;37.13;101923.09;5061052;28;4534;-63
2022/01/28 10:32:27;;;;;;;;;;;;;;;21.14;38.26;101938.84;5066152;28;4211;-63
2022/01/28 10:34:54;;;;;;;;;;;;;;;21.23;39.21;101923.53;5081200;28;4175;-61
2022/01/28 10:37:29;;;;;;;;;;;;;;;21.26;39.54;101936.72;5082900;28;6400;-61
2022/01/28 10:39:57;;;;;;;;;;;;;;;21.28;40.60;101942.59;5078247;28;4203;-61
2022/01/28 10:42:35;;;;;;;;;;;;;;;21.29;41.09;101944.09;5082675;28;4241;-60
2022/01/28 10:45:02;;;;;;;;;;;;;;;21.31;42.56;101947.09;5069021;28;4201;-63
2022/01/28 10:47:40;;;;;;;;;;;;;;;21.27;42.49;101958.38;5074972;28;4076;-59
2022/01/28 10:50:16;;;;;;;;;;;;;;;21.27;41.93;101952.59;5079684;28;5240;-63
2022/01/28 10:52:43;;;;;;;;;;;;;;;21.33;41.17;101970.25;5081265;28;4307;-63
2022/01/28 10:55:16;;;;;;;;;;;;;;;21.37;41.31;101971.88;5080622;28;6604;-65
2022/01/28 10:57:42;;;;;;;;;;;;;;;21.39;41.28;101964.09;5080460;28;5499;-65
2022/01/28 11:00:09;;;;;;;;;;;;;;;21.43;42.01;101975.91;5062462;28;4204;-62
2022/01/28 11:02:35;;;;;;;;;;;;;;;21.61;44.00;101984.91;5075292;28;4142;-64
2022/01/28 11:05:02;;;;;;;;;;;;;;;21.67;43.86;101978.72;5080014;28;5495;-64
2022/01/28 11:07:28;;;;;;;;;;;;;;;21.65;43.22;101967.84;5061739;28;4204;-64
2022/01/28 11:09:55;;;;;;;;;;;;;;;21.67;43.26;101982.38;5083228;28;5471;-66
2022/01/28 11:12:21;;;;;;;;;;;;;;;21.70;43.16;101969.56;5083159;28;4247;-63
2022/01/28 11:14:48;;;;;;;;;;;;;;;21.72;43.08;101975.47;5061579;28;4200;-64
2022/01/28 11:17:16;;;;;;;;;;;;;;;21.77;43.15;101984.34;5056502;28;4338;-62
2022/01/28 11:19:43;;;;;;;;;;;;;;;21.83;42.88;101982.56;5082184;28;5308;-62
2022/01/28 11:22:20;;;;;;;;;;;;;;;21.86;43.28;101980.56;5078213;28;5579;-62
2022/01/28 11:24:56;;;;;;;;;;;;;;;21.88;43.15;101972.78;5060062;28;4212;-61
2022/01/28 11:27:27;;;;;;;;;;;;;;;21.91;43.09;101983.03;5059432;28;4171;-65
2022/01/28 11:30:12;;;;;;;;;;;;;;;21.95;43.43;101982.53;5062778;28;4239;-65
2022/01/28 11:32:51;;;;;;;;;;;;;;;21.94;43.21;102009.84;5082316;28;4157;-64
2022/01/28 11:35:18;;;;;;;;;;;;;;;21.92;43.07;102029.91;5080352;28;4154;-63
2022/01/28 11:37:45;;;;;;;;;;;;;;;21.94;43.45;102027.94;5079763;28;5504;-62
2022/01/28 11:40:12;;;;;;;;;;;;;;;21.96;43.38;102035.94;5069799;28;4174;-65
2022/01/28 11:42:38;;;;;;;;;;;;;;;22.15;43.39;102035.63;5077857;28;4241;-64
2022/01/28 11:45:10;;;;;;;;;;;;;;;22.23;42.79;102031.72;5080593;28;5080;-63
2022/01/28 11:47:37;;;;;;;;;;;;;;;22.23;42.35;102037.50;5060324;28;4169;-64
2022/01/28 11:50:09;;;;;;;;;;;;;;;22.27;42.65;102040.63;5077865;28;4227;-61
2022/01/28 11:52:42;;;;;;;;;;;;;;;22.32;42.98;102036.56;5078035;28;4239;-61
2022/01/28 11:55:14;;;;;;;;;;;;;;;22.51;43.04;102039.09;5081662;28;4294;-62
2022/01/28 11:57:53;;;;;;;;;;;;;;;22.69;42.73;102032.84;5075627;28;5259;-63
2022/01/28 12:00:21;;;;;;;;;;;;;;;22.74;42.28;102028.78;5070487;28;6271;-66
2022/01/28 12:02:48;;;;;;;;;;;;;;;22.72;42.14;102034.47;5073667;28;4269;-64
2022/01/28 12:05:23;;;;;;;;;;;;;;;22.73;42.04;102044.63;5073715;28;4207;-62
2022/01/28 12:07:49;;;;;;;;;;;;;;;22.65;41.82;102038.41;5079407;28;4202;-61
2022/01/28 12:10:16;;;;;;;;;;;;;;;21.96;41.95;102050.34;5076732;28;4273;-62
2022/01/28 12:12:45;;;;;;;;;;;;;;;21.65;42.28;102042.78;5056378;28;4178;-61
2022/01/28 12:15:17;;;;;;;;;;;;;;;21.67;42.03;102048.69;5079419;28;4420;-62
2022/01/28 12:17:50;;;;;;;;;;;;;;;21.64;41.93;102049.91;5077820;28;4313;-61
2022/01/28 12:20:37;;;;;;;;;;;;;;;21.94;42.17;102051.00;5078693;28;4187;-63
2022/01/28 12:23:22;;;;;;;;;;;;;;;22.26;41.20;102056.41;5076494;28;4252;-63
2022/01/28 12:25:49;;;;;;;;;;;;;;;22.41;41.25;102060.88;5071153;28;4301;-65
2022/01/28 12:28:18;;;;;;;;;;;;;;;22.04;41.15;102071.03;5067675;28;4135;-60
2022/01/28 12:30:45;;;;;;;;;;;;;;;21.90;41.43;102067.31;5070558;28;4167;-65
2022/01/28 12:33:12;;;;;;;;;;;;;;;21.89;41.45;102062.91;5078609;28;4277;-64
2022/01/28 12:35:38;;;;;;;;;;;;;;;22.19;41.26;102069.72;5077567;28;5418;-64
2022/01/28 12:38:06;;;;;;;;;;;;;;;22.31;41.02;102069.69;5080256;28;4599;-65
2022/01/28 12:40:36;;;;;;;;;;;;;;;22.31;41.18;102084.13;5073380;28;4356;-63
2022/01/28 12:43:03;;;;;;;;;;;;;;;22.36;40.68;102077.22;5079096;28;5285;-63
2022/01/28 12:45:29;;;;;;;;;;;;;;;22.40;40.83;102077.44;5083627;28;4221;-63
2022/01/28 12:47:56;;;;;;;;;;;;;;;22.44;40.58;102083.44;5080019;28;4159;-64
2022/01/28 12:50:22;;;;;;;;;;;;;;;22.47;40.91;102084.31;5077930;28;4189;-64
2022/01/28 12:52:49;;;;;;;;;;;;;;;22.46;40.63;102088.59;5082942;28;4154;-64
2022/01/28 12:55:15;;;;;;;;;;;;;;;22.16;40.60;102089.03;5077691;28;5336;-60
2022/01/28 12:57:42;;;;;;;;;;;;;;;22.41;41.08;102083.97;5082375;28;5290;-61
2022/01/28 13:00:09;;;;;;;;;;;;;;;22.48;40.96;102083.69;5077242;28;5554;-61
2022/01/28 13:02:35;;;;;;;;;;;;;;;22.48;41.37;102088.72;5080106;28;4232;-61
2022/01/28 13:10:18;;;;;;;;;;;;;;;22.57;41.66;102094.31;5077811;28;6437;-60
2022/01/28 13:12:45;;;;;;;;;;;;;;;22.72;41.53;102106.66;5078392;28;4190;-62
2022/01/28 13:15:12;;;;;;;;;;;;;;;22.81;41.35;102102.81;5080288;28;4148;-61
2022/01/28 13:17:39;;;;;;;;;;;;;;;22.83;41.23;102105.09;5079072;28;5325;-60
2022/01/28 13:20:09;;;;;;;;;;;;;;;22.82;41.29;102104.34;5073453;28;5302;-62
2022/01/28 13:22:35;;;;;;;;;;;;;;;22.81;41.16;102097.06;5081208;28;4250;-62
2022/01/28 13:25:05;;;;;;;;;;;;;;;22.81;41.12;102105.72;5062427;28;4286;-62
2022/01/28 13:27:38;;;;;;;;;;;;;;;22.81;41.37;102097.06;5057729;28;4241;-64
2022/01/28 13:30:13;;;;;;;;;;;;;;;22.86;41.74;102104.56;5076521;28;4374;-61
2022/01/28 13:32:41;;;;;;;;;;;;;;;22.90;41.71;102098.25;5080195;28;4246;-61
2022/01/28 13:35:15;;;;;;;;;;;;;;;22.91;41.53;102100.50;5084656;28;4257;-60
2022/01/28 13:37:44;;;;;;;;;;;;;;;22.89;41.49;102093.88;5084000;28;5824;-60
2022/01/28 13:40:29;;;;;;;;;;;;;;;22.93;41.45;102115.06;5081025;28;4190;-61
2022/01/28 13:42:59;;;;;;;;;;;;;;;22.94;41.33;102116.56;5084253;28;4253;-61
2022/01/28 13:45:42;;;;;;;;;;;;;;;22.89;41.52;102109.06;5084439;28;4372;-62
2022/01/28 13:48:08;;;;;;;;;;;;;;;22.87;41.39;102123.41;5084490;28;4181;-62
2022/01/28 13:50:36;;;;;;;;;;;;;;;22.91;41.91;102117.84;5079794;28;5261;-61
2022/01/28 13:53:08;;;;;;;;;;;;;;;22.93;41.83;102125.84;5080516;28;5376;-63
2022/01/28 13:55:34;;;;;;;;;;;;;;;22.96;41.71;102122.47;5083676;28;4220;-60
2022/01/28 13:58:02;;;;;;;;;;;;;;;22.98;41.75;102116.06;5077359;28;4235;-62
2022/01/28 14:00:54;;;;;;;;;;;;;;;22.98;41.85;102122.56;5075745;28;4248;-66
2022/01/28 14:03:51;;;;;;;;;;;;;;;22.94;41.93;102128.13;5079518;28;4349;-64